createdAt,value
2023-05-09T00:01:59.375Z,2.00
2023-05-09T00:04:27.203Z,2.40
2023-05-09T00:06:54.781Z,2.05
2023-05-09T00:09:22.323Z,1.95
2023-05-09T00:11:49.878Z,2.00
2023-05-09T00:14:19.438Z,2.30
2023-05-09T00:16:47.041Z,2.03
2023-05-09T00:19:16.936Z,2.70
2023-05-09T00:21:44.475Z,2.20
2023-05-09T00:24:12.028Z,2.17
2023-05-09T00:26:39.569Z,2.33
2023-05-09T00:29:07.138Z,2.45
2023-05-09T00:31:36.270Z,2.30
2023-05-09T00:34:03.990Z,2.38
2023-05-09T00:36:32.215Z,2.40
2023-05-09T00:38:59.786Z,2.13
2023-05-09T00:41:27.343Z,2.00
2023-05-09T00:43:54.898Z,2.10
2023-05-09T00:46:22.596Z,2.20
2023-05-09T00:48:52.405Z,2.20
2023-05-09T00:51:20.015Z,2.50
2023-05-09T00:53:47.618Z,2.40
2023-05-09T00:56:15.903Z,2.50
2023-05-09T00:58:43.649Z,2.35
2023-05-09T01:01:11.404Z,2.30
2023-05-09T01:03:39.852Z,2.22
2023-05-09T01:06:12.969Z,2.10
2023-05-09T01:08:45.435Z,2.00
2023-05-09T01:11:19.685Z,2.28
2023-05-09T01:13:51.726Z,2.30
2023-05-09T01:16:23.797Z,2.20
2023-05-09T01:18:57.270Z,2.30
2023-05-09T01:21:29.232Z,2.30
2023-05-09T01:24:21.078Z,2.17
2023-05-09T01:26:54.161Z,2.40
2023-05-09T01:29:37.750Z,2.28
2023-05-09T01:32:08.126Z,2.38
2023-05-09T01:34:36.078Z,2.38
2023-05-09T01:37:05.767Z,2.30
2023-05-09T01:39:34.951Z,2.10
2023-05-09T01:42:03.755Z,2.10
2023-05-09T01:44:33.548Z,2.30
2023-05-09T01:47:02.672Z,2.35
2023-05-09T01:49:32.060Z,2.10
2023-05-09T01:52:00.673Z,2.10
2023-05-09T01:54:28.757Z,2.42
2023-05-09T01:56:56.674Z,2.50
2023-05-09T01:59:24.874Z,2.55
2023-05-09T02:01:53.010Z,2.65
2023-05-09T02:04:22.945Z,2.47
2023-05-09T02:06:51.624Z,2.40
2023-05-09T02:09:19.337Z,2.28
2023-05-09T02:11:47.044Z,2.20
2023-05-09T02:14:15.034Z,2.60
2023-05-09T02:16:42.798Z,2.53
2023-05-09T02:19:10.492Z,2.40
2023-05-09T02:21:39.524Z,2.10
2023-05-09T02:24:07.464Z,2.33
2023-05-09T02:26:35.488Z,2.30
2023-05-09T02:29:03.589Z,2.47
2023-05-09T02:31:31.666Z,2.17
2023-05-09T02:33:59.632Z,2.33
2023-05-09T02:36:27.888Z,2.30
2023-05-09T02:38:56.883Z,2.38
2023-05-09T02:41:24.435Z,2.33
2023-05-09T02:43:51.991Z,2.65
2023-05-09T02:46:19.578Z,2.50
2023-05-09T02:48:47.169Z,2.33
2023-05-09T02:51:14.722Z,2.30
2023-05-09T02:53:42.305Z,2.43
2023-05-09T02:56:11.434Z,2.25
2023-05-09T02:58:39.251Z,2.50
2023-05-09T03:01:06.857Z,2.10
2023-05-09T03:03:35.026Z,2.30
2023-05-09T03:06:02.661Z,2.70
2023-05-09T03:08:31.072Z,2.65
2023-05-09T03:10:58.666Z,2.58
2023-05-09T03:13:27.658Z,2.50
2023-05-09T03:15:55.243Z,2.80
2023-05-09T03:18:22.798Z,2.60
2023-05-09T03:20:50.395Z,2.80
2023-05-09T03:23:17.972Z,2.60
2023-05-09T03:25:45.548Z,2.47
2023-05-09T03:28:13.082Z,2.50
2023-05-09T03:30:42.154Z,2.53
2023-05-09T03:33:09.800Z,2.80
2023-05-09T03:35:37.469Z,2.60
2023-05-09T03:38:05.722Z,2.65
2023-05-09T03:40:33.583Z,2.70
2023-05-09T03:43:01.110Z,2.77
2023-05-09T03:45:28.687Z,2.80
2023-05-09T03:47:57.828Z,2.85
2023-05-09T03:50:25.528Z,3.10
2023-05-09T03:52:55.156Z,3.00
2023-05-09T03:55:23.771Z,2.80
2023-05-09T03:57:51.314Z,2.80
2023-05-09T04:00:19.221Z,2.65
2023-05-09T04:02:46.838Z,2.90
2023-05-09T04:05:16.165Z,2.63
2023-05-09T04:07:44.092Z,3.10
2023-05-09T04:10:11.830Z,3.03
2023-05-09T04:12:39.402Z,2.80
2023-05-09T04:15:07.854Z,2.90
2023-05-09T04:17:35.488Z,2.90
2023-05-09T04:20:03.211Z,3.00
2023-05-09T04:22:32.157Z,3.00
2023-05-09T04:24:59.693Z,2.90
2023-05-09T04:27:28.091Z,3.17
2023-05-09T04:29:55.669Z,2.78
2023-05-09T04:32:23.558Z,3.00
2023-05-09T04:34:51.111Z,3.22
2023-05-09T04:37:18.654Z,3.03
2023-05-09T04:39:47.595Z,3.00
2023-05-09T04:42:15.144Z,3.35
2023-05-09T04:44:42.758Z,3.00
2023-05-09T04:47:10.426Z,3.20
2023-05-09T04:49:38.015Z,3.55
2023-05-09T04:52:05.680Z,3.55
2023-05-09T04:54:33.408Z,3.38
2023-05-09T04:57:13.659Z,3.23
2023-05-09T04:59:44.567Z,3.22
2023-05-09T05:02:12.907Z,3.20
2023-05-09T05:04:40.679Z,3.53
2023-05-09T05:07:08.291Z,3.38
2023-05-09T05:09:35.854Z,3.00
2023-05-09T05:12:09.116Z,3.20
2023-05-09T05:14:37.278Z,3.50
2023-05-09T05:17:04.835Z,3.45
2023-05-09T05:19:32.406Z,3.38
2023-05-09T05:21:59.943Z,3.73
2023-05-09T05:24:27.728Z,3.63
2023-05-09T05:26:55.544Z,3.70
2023-05-09T05:29:24.458Z,3.95
2023-05-09T05:31:52.072Z,3.53
2023-05-09T05:34:19.771Z,3.70
2023-05-09T05:36:47.726Z,3.92
2023-05-09T05:39:15.525Z,3.70
2023-05-09T05:41:43.077Z,4.20
2023-05-09T05:44:10.616Z,4.05
2023-05-09T05:46:39.530Z,4.00
2023-05-09T05:49:07.093Z,4.13
2023-05-09T05:51:34.676Z,4.00
2023-05-09T05:54:02.227Z,4.35
2023-05-09T05:56:29.788Z,4.45
2023-05-09T05:58:57.382Z,4.10
2023-05-09T06:01:24.914Z,4.00
2023-05-09T06:03:55.864Z,3.90
2023-05-09T06:06:23.793Z,3.92
2023-05-09T06:08:51.348Z,4.18
2023-05-09T06:11:19.117Z,4.57
2023-05-09T06:13:46.725Z,4.22
2023-05-09T06:16:19.503Z,4.30
2023-05-09T06:18:48.115Z,4.22
2023-05-09T06:21:17.102Z,4.43
2023-05-09T06:24:01.398Z,4.57
2023-05-09T06:26:32.177Z,4.50
2023-05-09T06:28:59.729Z,4.60
2023-05-09T06:31:27.309Z,4.45
2023-05-09T06:33:54.947Z,4.60
2023-05-09T06:36:23.920Z,5.10
2023-05-09T06:38:51.479Z,4.82
2023-05-09T06:41:19.046Z,4.97
2023-05-09T06:43:46.757Z,4.80
2023-05-09T06:46:14.345Z,4.50
2023-05-09T06:48:41.927Z,4.80
2023-05-09T06:51:09.514Z,5.50
2023-05-09T06:53:38.449Z,5.20
2023-05-09T06:56:06.326Z,5.00
2023-05-09T06:58:33.936Z,5.60
2023-05-09T07:01:01.495Z,5.10
2023-05-09T07:03:29.094Z,5.28
2023-05-09T07:05:58.862Z,5.38
2023-05-09T07:08:26.915Z,5.07
2023-05-09T07:10:55.873Z,5.45
2023-05-09T07:13:23.523Z,5.43
2023-05-09T07:15:51.101Z,5.00
2023-05-09T07:18:18.673Z,5.40
2023-05-09T07:20:46.504Z,5.38
2023-05-09T07:23:14.035Z,5.72
2023-05-09T07:25:41.691Z,5.40
2023-05-09T07:28:12.323Z,5.68
2023-05-09T07:30:39.914Z,5.80
2023-05-09T07:33:08.080Z,6.03
2023-05-09T07:35:35.840Z,6.00
2023-05-09T07:38:03.404Z,5.30
2023-05-09T07:40:31.012Z,5.00
2023-05-09T07:42:58.697Z,5.63
2023-05-09T07:45:27.693Z,5.30
2023-05-09T07:47:55.457Z,5.53
2023-05-09T07:50:23.302Z,5.67
2023-05-09T07:52:51.891Z,5.30
2023-05-09T07:55:19.548Z,5.00
2023-05-09T07:57:47.739Z,5.10
2023-05-09T08:00:16.520Z,5.60
2023-05-09T08:02:45.610Z,5.23
2023-05-09T08:05:13.701Z,5.50
2023-05-09T08:07:41.640Z,5.38
2023-05-09T08:10:10.205Z,5.55
2023-05-09T08:12:37.788Z,5.18
2023-05-09T08:15:05.841Z,5.73
2023-05-09T08:17:33.502Z,5.90
2023-05-09T08:20:02.528Z,5.18
2023-05-09T08:22:30.090Z,5.80
2023-05-09T08:24:57.679Z,6.35
2023-05-09T08:27:25.290Z,5.10
2023-05-09T08:29:52.852Z,5.68
2023-05-09T08:32:20.999Z,6.45
2023-05-09T08:34:48.659Z,5.85
2023-05-09T08:37:17.584Z,6.10
2023-05-09T08:39:45.118Z,6.13
2023-05-09T08:42:15.869Z,6.07
2023-05-09T08:44:43.699Z,6.68
2023-05-09T08:47:11.454Z,5.55
2023-05-09T08:49:39.117Z,5.72
2023-05-09T08:52:06.737Z,6.10
2023-05-09T08:54:36.252Z,6.10
2023-05-09T08:57:04.149Z,5.65
2023-05-09T08:59:33.232Z,6.68
2023-05-09T09:02:00.843Z,6.50
2023-05-09T09:04:28.470Z,6.63
2023-05-09T09:06:56.286Z,6.28
2023-05-09T09:09:24.272Z,6.45
2023-05-09T09:11:55.533Z,7.13
2023-05-09T09:14:25.505Z,6.60
2023-05-09T09:16:54.019Z,6.07
2023-05-09T09:19:23.490Z,7.18
2023-05-09T09:21:53.959Z,7.00
2023-05-09T09:24:24.010Z,6.30
2023-05-09T09:26:52.979Z,6.72
2023-05-09T09:29:22.823Z,6.60
2023-05-09T09:31:53.776Z,6.47
2023-05-09T09:34:22.438Z,6.00
2023-05-09T09:36:50.217Z,6.50
2023-05-09T09:39:17.814Z,6.50
2023-05-09T09:41:45.965Z,6.30
2023-05-09T09:44:15.803Z,6.50
2023-05-09T09:46:44.865Z,6.60
2023-05-09T09:49:12.655Z,6.57
2023-05-09T09:51:40.333Z,6.80
2023-05-09T09:54:08.786Z,6.50
2023-05-09T09:56:40.272Z,6.40
2023-05-09T09:59:11.459Z,6.60
2023-05-09T10:01:53.885Z,6.63
2023-05-09T10:04:22.812Z,6.95
2023-05-09T10:06:54.244Z,7.00
2023-05-09T10:09:22.657Z,6.15
2023-05-09T10:11:51.217Z,6.45
2023-05-09T10:14:20.028Z,6.82
2023-05-09T10:16:48.632Z,6.70
2023-05-09T10:19:18.721Z,6.00
2023-05-09T10:21:50.962Z,6.65
2023-05-09T10:24:19.246Z,6.47
2023-05-09T10:26:47.307Z,6.25
2023-05-09T10:29:20.973Z,6.65
2023-05-09T10:31:49.032Z,6.63
2023-05-09T10:34:16.855Z,6.35
2023-05-09T10:36:45.077Z,6.97
2023-05-09T10:39:15.437Z,6.22
2023-05-09T10:41:43.164Z,6.82
2023-05-09T10:44:11.411Z,6.47
2023-05-09T10:46:39.112Z,6.30
2023-05-09T10:49:06.718Z,6.95
2023-05-09T10:51:34.637Z,6.63
2023-05-09T10:54:02.282Z,6.65
2023-05-09T10:56:32.750Z,6.50
2023-05-09T10:59:00.938Z,6.07
2023-05-09T11:01:34.772Z,6.40
2023-05-09T11:04:03.906Z,6.20
2023-05-09T11:06:41.322Z,6.82
2023-05-09T11:09:24.685Z,6.45
2023-05-09T11:11:54.377Z,5.97
2023-05-09T11:14:31.642Z,6.10
2023-05-09T11:16:59.752Z,6.83
2023-05-09T11:19:37.126Z,5.90
2023-05-09T11:22:12.416Z,6.20
2023-05-09T11:24:40.027Z,7.07
2023-05-09T11:27:16.530Z,7.10
2023-05-09T11:29:44.483Z,6.60
2023-05-09T11:32:14.449Z,6.57
2023-05-09T11:34:42.832Z,6.65
2023-05-09T11:37:10.983Z,6.40
2023-05-09T11:39:53.402Z,6.07
2023-05-09T11:42:22.471Z,5.87
2023-05-09T11:44:50.100Z,5.90
2023-05-09T11:47:17.737Z,6.22
2023-05-09T11:49:45.307Z,5.60
2023-05-09T11:52:12.810Z,5.90
2023-05-09T11:54:40.656Z,6.18
2023-05-09T11:57:08.968Z,5.80
2023-05-09T11:59:39.425Z,5.65
2023-05-09T12:02:07.398Z,5.90
2023-05-09T12:04:35.240Z,5.32
2023-05-09T12:07:03.054Z,5.65
2023-05-09T12:09:32.438Z,5.10
2023-05-09T12:12:00.921Z,5.50
2023-05-09T12:14:29.101Z,5.35
2023-05-09T12:16:58.075Z,5.07
2023-05-09T12:19:26.323Z,5.30
2023-05-09T12:21:58.144Z,5.70
2023-05-09T12:24:26.674Z,5.55
2023-05-09T12:26:54.370Z,5.20
2023-05-09T12:29:22.414Z,5.13
2023-05-09T12:31:50.770Z,5.07
2023-05-09T12:34:19.899Z,5.10
2023-05-09T12:36:50.820Z,4.90
2023-05-09T12:39:21.821Z,5.10
2023-05-09T12:42:01.213Z,5.10
2023-05-09T12:44:29.902Z,5.50
2023-05-09T12:46:58.393Z,4.87
2023-05-09T12:49:27.379Z,4.78
2023-05-09T12:51:55.645Z,5.00
2023-05-09T12:54:24.074Z,5.18
2023-05-09T12:56:53.292Z,5.10
2023-05-09T12:59:24.241Z,4.93
2023-05-09T13:01:56.579Z,4.43
2023-05-09T13:04:24.471Z,4.40
2023-05-09T13:06:55.520Z,4.72
2023-05-09T13:09:23.416Z,4.55
2023-05-09T13:11:51.638Z,4.50
2023-05-09T13:14:19.284Z,4.88
2023-05-09T13:16:47.034Z,4.18
2023-05-09T13:19:14.707Z,4.05
2023-05-09T13:21:42.280Z,4.18
2023-05-09T13:24:11.400Z,4.30
2023-05-09T13:26:39.008Z,4.45
2023-05-09T13:29:06.565Z,4.53
2023-05-09T13:31:34.243Z,4.40
2023-05-09T13:34:01.791Z,4.40
2023-05-09T13:36:29.339Z,4.27
2023-05-09T13:38:56.929Z,4.47
2023-05-09T13:41:26.087Z,3.85
2023-05-09T13:43:53.677Z,3.85
2023-05-09T13:46:21.292Z,4.32
2023-05-09T13:48:48.988Z,4.03
2023-05-09T13:51:16.560Z,4.43
2023-05-09T13:53:44.159Z,4.20
2023-05-09T13:56:11.824Z,4.40
2023-05-09T13:58:40.753Z,4.60
2023-05-09T14:01:08.380Z,4.70
2023-05-09T14:03:36.117Z,4.60
2023-05-09T14:06:04.304Z,3.80
2023-05-09T14:08:32.751Z,4.43
2023-05-09T14:11:00.301Z,4.10
2023-05-09T14:13:28.134Z,3.70
2023-05-09T14:15:58.523Z,3.90
2023-05-09T14:18:26.098Z,3.85
2023-05-09T14:20:53.663Z,3.75
2023-05-09T14:23:22.311Z,3.75
2023-05-09T14:25:49.921Z,3.70
2023-05-09T14:28:17.560Z,4.07
2023-05-09T14:30:45.095Z,3.63
2023-05-09T14:33:14.499Z,3.63
2023-05-09T14:35:42.143Z,3.60
2023-05-09T14:38:09.714Z,3.37
2023-05-09T14:40:37.553Z,3.30
2023-05-09T14:43:05.887Z,3.40
2023-05-09T14:45:34.141Z,3.80
2023-05-09T14:48:02.640Z,3.80
2023-05-09T14:50:31.771Z,3.00
2023-05-09T14:52:59.745Z,3.67
2023-05-09T14:55:27.789Z,3.35
2023-05-09T14:57:55.371Z,3.25
2023-05-09T15:00:23.723Z,3.53
2023-05-09T15:02:51.634Z,3.10
2023-05-09T15:05:19.297Z,3.30
2023-05-09T15:07:48.303Z,3.38
2023-05-09T15:10:16.075Z,3.20
2023-05-09T15:12:44.218Z,3.38
2023-05-09T15:15:15.348Z,3.50
2023-05-09T15:17:43.637Z,3.40
2023-05-09T15:20:11.958Z,3.60
2023-05-09T15:22:39.573Z,3.58
2023-05-09T15:25:09.207Z,3.30
2023-05-09T15:27:37.231Z,3.70
2023-05-09T15:30:05.557Z,3.35
2023-05-09T15:32:33.171Z,3.05
2023-05-09T15:35:00.797Z,3.55
2023-05-09T15:37:28.366Z,2.97
2023-05-09T15:39:55.934Z,3.07
2023-05-09T15:42:25.279Z,3.20
2023-05-09T15:44:52.880Z,3.50
2023-05-09T15:47:20.593Z,3.40
2023-05-09T15:49:48.204Z,2.95
2023-05-09T15:52:15.849Z,3.63
2023-05-09T15:54:45.443Z,3.42
2023-05-09T15:57:13.387Z,3.08
2023-05-09T15:59:42.342Z,3.38
2023-05-09T16:02:10.121Z,3.55
2023-05-09T16:04:38.437Z,3.30
2023-05-09T16:07:06.039Z,3.22
2023-05-09T16:09:34.118Z,3.00
2023-05-09T16:12:01.791Z,3.20
2023-05-09T16:14:29.398Z,3.00
2023-05-09T16:16:58.370Z,3.30
2023-05-09T16:19:26.032Z,2.83
2023-05-09T16:21:53.658Z,3.05
2023-05-09T16:24:21.343Z,2.75
2023-05-09T16:26:48.915Z,2.55
2023-05-09T16:29:16.522Z,2.80
2023-05-09T16:31:44.901Z,2.75
2023-05-09T16:34:13.912Z,2.60
2023-05-09T16:36:41.444Z,2.80
2023-05-09T16:39:09.070Z,2.70
2023-05-09T16:41:36.643Z,2.57
2023-05-09T16:44:04.571Z,2.65
2023-05-09T16:46:32.177Z,3.00
2023-05-09T16:48:59.736Z,2.60
2023-05-09T16:51:28.939Z,2.70
2023-05-09T16:53:56.501Z,2.50
2023-05-09T16:56:24.163Z,2.55
2023-05-09T16:58:51.763Z,2.50
2023-05-09T17:01:19.379Z,2.55
2023-05-09T17:03:48.097Z,2.60
2023-05-09T17:06:15.789Z,2.40
2023-05-09T17:08:44.714Z,2.33
2023-05-09T17:11:12.411Z,2.40
2023-05-09T17:13:40.256Z,2.60
2023-05-09T17:16:08.194Z,2.65
2023-05-09T17:18:38.102Z,2.70
2023-05-09T17:21:06.588Z,2.50
2023-05-09T17:23:34.117Z,2.50
2023-05-09T17:26:05.793Z,2.45
2023-05-09T17:28:33.380Z,2.42
2023-05-09T17:31:00.944Z,2.40
2023-05-09T17:33:29.759Z,2.33
2023-05-09T17:35:57.380Z,2.28
2023-05-09T17:38:25.500Z,2.60
2023-05-09T17:40:53.514Z,2.30
2023-05-09T17:43:24.066Z,2.30
2023-05-09T17:45:53.322Z,2.45
2023-05-09T17:48:21.229Z,2.50
2023-05-09T17:50:49.341Z,2.70
2023-05-09T17:53:17.048Z,2.28
2023-05-09T17:55:44.615Z,2.40
2023-05-09T17:58:12.190Z,2.10
2023-05-09T18:00:41.501Z,2.30
2023-05-09T18:03:09.237Z,2.38
2023-05-09T18:05:36.908Z,2.45
2023-05-09T18:08:04.558Z,2.40
2023-05-09T18:10:32.233Z,2.80
2023-05-09T18:12:59.876Z,2.25
2023-05-09T18:15:27.507Z,2.40
2023-05-09T18:17:57.749Z,2.58
2023-05-09T18:20:25.787Z,2.57
2023-05-09T18:22:53.802Z,2.88
2023-05-09T18:25:21.465Z,2.35
2023-05-09T18:27:49.092Z,2.95
2023-05-09T18:30:17.170Z,2.40
2023-05-09T18:32:45.024Z,2.27
2023-05-09T18:35:14.107Z,2.47
2023-05-09T18:37:41.862Z,2.30
2023-05-09T18:40:14.741Z,2.60
2023-05-09T18:42:42.736Z,2.40
2023-05-09T18:45:10.627Z,2.10
2023-05-09T18:47:38.305Z,2.78
2023-05-09T18:50:07.107Z,2.50
2023-05-09T18:52:36.093Z,2.85
2023-05-09T18:55:05.798Z,2.50
2023-05-09T18:57:33.899Z,2.30
2023-05-09T19:00:01.557Z,2.65
2023-05-09T19:02:30.180Z,2.25
2023-05-09T19:04:57.827Z,2.65
2023-05-09T19:07:25.363Z,2.60
2023-05-09T19:09:54.294Z,3.60
2023-05-09T19:12:21.887Z,3.60
2023-05-09T19:14:49.470Z,3.97
2023-05-09T19:17:17.021Z,4.10
2023-05-09T19:19:44.565Z,3.95
2023-05-09T19:22:12.147Z,3.73
2023-05-09T19:24:40.978Z,3.28
2023-05-09T19:27:09.911Z,3.47
2023-05-09T19:29:37.557Z,2.50
2023-05-09T19:32:06.978Z,3.08
2023-05-09T19:34:34.540Z,2.37
2023-05-09T19:37:02.064Z,2.40
2023-05-09T19:39:29.914Z,2.65
2023-05-09T19:41:59.636Z,2.40
2023-05-09T19:44:30.275Z,2.30
2023-05-09T19:46:58.541Z,2.60
2023-05-09T19:49:26.179Z,2.50
2023-05-09T19:51:53.722Z,2.60
2023-05-09T19:54:21.957Z,2.53
2023-05-09T19:56:49.540Z,2.45
2023-05-09T19:59:17.063Z,2.63
2023-05-09T20:01:46.109Z,2.53
2023-05-09T20:04:13.708Z,2.50
2023-05-09T20:06:41.405Z,2.60
2023-05-09T20:09:09.238Z,2.60
2023-05-09T20:11:36.765Z,2.40
2023-05-09T20:14:04.549Z,2.65
2023-05-09T20:16:32.164Z,2.42
2023-05-09T20:19:01.232Z,2.70
2023-05-09T20:21:28.864Z,2.25
2023-05-09T20:23:56.430Z,2.30
2023-05-09T20:26:25.308Z,2.55
2023-05-09T20:28:54.475Z,2.78
2023-05-09T20:31:22.176Z,2.80
2023-05-09T20:33:51.204Z,2.53
2023-05-09T20:36:20.231Z,2.50
2023-05-09T20:38:47.829Z,2.85
2023-05-09T20:41:15.450Z,2.50
2023-05-09T20:43:43.021Z,2.83
2023-05-09T20:46:10.796Z,2.45
2023-05-09T20:48:38.414Z,2.20
2023-05-09T20:51:05.970Z,2.47
2023-05-09T20:53:35.052Z,2.97
2023-05-09T20:56:03.008Z,2.42
2023-05-09T20:58:32.212Z,2.75
2023-05-09T21:00:59.801Z,2.70
2023-05-09T21:03:27.486Z,2.65
2023-05-09T21:05:55.113Z,2.40
2023-05-09T21:08:22.684Z,2.80
2023-05-09T21:10:54.433Z,2.42
2023-05-09T21:13:22.387Z,2.60
2023-05-09T21:15:50.930Z,2.72
2023-05-09T21:18:18.532Z,2.63
2023-05-09T21:20:46.246Z,2.80
2023-05-09T21:23:14.349Z,2.75
2023-05-09T21:25:41.994Z,3.13
2023-05-09T21:28:10.971Z,2.92
2023-05-09T21:30:38.512Z,2.60
2023-05-09T21:33:06.150Z,2.80
2023-05-09T21:35:33.737Z,2.45
2023-05-09T21:38:01.260Z,2.60
2023-05-09T21:40:28.811Z,2.70
2023-05-09T21:42:56.357Z,2.70
2023-05-09T21:45:25.391Z,2.65
2023-05-09T21:47:53.011Z,2.50
2023-05-09T21:50:20.784Z,2.87
2023-05-09T21:52:48.353Z,2.83
2023-05-09T21:55:16.290Z,2.70
2023-05-09T21:57:43.840Z,3.17
2023-05-09T22:00:14.245Z,2.75
2023-05-09T22:02:43.844Z,3.07
2023-05-09T22:05:11.757Z,2.70
2023-05-09T22:07:39.392Z,3.00
2023-05-09T22:10:07.475Z,2.95
2023-05-09T22:12:35.073Z,3.10
2023-05-09T22:15:03.035Z,3.00
2023-05-09T22:17:30.685Z,2.70
2023-05-09T22:19:59.660Z,2.70
2023-05-09T22:22:27.932Z,3.00
2023-05-09T22:24:55.535Z,3.22
2023-05-09T22:27:23.091Z,3.10
2023-05-09T22:29:50.650Z,2.80
2023-05-09T22:32:18.218Z,3.22
2023-05-09T22:34:47.440Z,2.78
2023-05-09T22:37:16.428Z,3.20
2023-05-09T22:39:43.956Z,3.27
2023-05-09T22:42:11.513Z,2.72
2023-05-09T22:44:39.513Z,2.72
2023-05-09T22:47:08.641Z,3.97
2023-05-09T22:49:36.488Z,2.80
2023-05-09T22:52:04.229Z,3.20
2023-05-09T22:54:33.146Z,3.00
2023-05-09T22:57:00.721Z,2.70
2023-05-09T22:59:28.282Z,3.00
2023-05-09T23:01:55.839Z,2.90
2023-05-09T23:04:23.361Z,2.90
2023-05-09T23:06:50.939Z,2.85
2023-05-09T23:09:18.476Z,3.00
2023-05-09T23:11:47.799Z,3.03
2023-05-09T23:14:15.373Z,2.75
2023-05-09T23:16:43.038Z,2.90
2023-05-09T23:19:10.869Z,3.05
2023-05-09T23:21:38.434Z,3.05
2023-05-09T23:24:06.182Z,2.88
2023-05-09T23:26:33.776Z,3.00
2023-05-09T23:29:02.706Z,3.00
2023-05-09T23:31:30.302Z,3.05
2023-05-09T23:33:57.917Z,3.00
2023-05-09T23:36:25.448Z,2.90
2023-05-09T23:38:52.995Z,2.97
2023-05-09T23:41:21.078Z,2.90
2023-05-09T23:43:48.786Z,3.05
2023-05-09T23:46:17.730Z,3.00
2023-05-09T23:48:45.777Z,3.03
2023-05-09T23:51:13.329Z,2.90
2023-05-09T23:53:41.165Z,3.40
2023-05-09T23:56:08.745Z,3.40
2023-05-09T23:58:36.290Z,3.20
